Aviation Digital Data Service (ADDS)

Output produced by METARs form (0611 UTC 19 March 2019)
found at http://www.aviationweather.gov/metar/data/
 
Forecast for: LPMA (FUNCHAL/MADEIRA , PT)
Text: TAF LPMA 190500Z 1906/2006 02015KT 9999 SCT015 BKN030
Forecast period: 0600 UTC 19 March 2019 to 0600 UTC 20 March 2019
Forecast type: FROM: standard forecast or significant change
Winds: from the NNE (20 degrees) at 17 MPH (15 knots; 7.7 m/s)
Visibility: 6 or more miles 10+ km)
Ceiling: 3000 feet AGL
Clouds: scattered clouds at 1500 feet AGL
broken clouds at 3000 feet AGL
Weather: no significant weather forecast for this period
Text: TEMPO 1906/1909 BKN015
Forecast period: 0600 to 0900 UTC 19 March 2019
Forecast type: TEMPORARY: The following changes expected for less than half the time period
Visibility: missing
Ceiling: 1500 feet AGL
Clouds: broken clouds at 1500 feet AGL
Weather: no significant weather forecast for this period
Text: TEMPO 1906/1924 02020G32KT
Forecast period: 0600 UTC 19 March 2019 to 0000 UTC 20 March 2019
Forecast type: TEMPORARY: The following changes expected for less than half the time period
Winds: from the NNE (20 degrees) at 23 MPH (20 knots; 10.3 m/s)
gusting to 37 MPH (32 knots; 16.5 m/s)
Visibility: missing
Ceiling: unknown
Clouds: missing
Weather: no significant weather forecast for this period